sensor_id;sensor_type;location;lat;lon;timestamp;P1;durP1;ratioP1;P2;durP2;ratioP2
11000;SDS011;5553;48.506;8.870;2022-08-11T00:01:10;2.70;;;2.50;;
11000;SDS011;5553;48.506;8.870;2022-08-11T00:03:45;4.70;;;2.50;;
11000;SDS011;5553;48.506;8.870;2022-08-11T00:06:22;5.73;;;2.57;;
11000;SDS011;5553;48.506;8.870;2022-08-11T00:08:55;3.23;;;2.40;;
11000;SDS011;5553;48.506;8.870;2022-08-11T00:11:30;2.70;;;2.13;;
11000;SDS011;5553;48.506;8.870;2022-08-11T00:14:00;3.13;;;2.50;;
11000;SDS011;5553;48.506;8.870;2022-08-11T00:16:30;2.50;;;2.30;;
11000;SDS011;5553;48.506;8.870;2022-08-11T00:18:59;3.10;;;2.50;;
11000;SDS011;5553;48.506;8.870;2022-08-11T00:21:29;2.30;;;2.10;;
11000;SDS011;5553;48.506;8.870;2022-08-11T00:24:01;2.43;;;2.23;;
11000;SDS011;5553;48.506;8.870;2022-08-11T00:26:30;8.90;;;2.20;;
11000;SDS011;5553;48.506;8.870;2022-08-11T00:29:06;2.10;;;1.90;;
11000;SDS011;5553;48.506;8.870;2022-08-11T00:31:35;2.43;;;2.23;;
11000;SDS011;5553;48.506;8.870;2022-08-11T00:34:08;2.17;;;2.00;;
11000;SDS011;5553;48.506;8.870;2022-08-11T00:36:38;2.70;;;2.40;;
11000;SDS011;5553;48.506;8.870;2022-08-11T00:39:15;3.97;;;2.00;;
11000;SDS011;5553;48.506;8.870;2022-08-11T00:41:54;1.83;;;1.73;;
11000;SDS011;5553;48.506;8.870;2022-08-11T00:44:41;2.30;;;2.10;;
11000;SDS011;5553;48.506;8.870;2022-08-11T00:47:26;4.87;;;2.83;;
11000;SDS011;5553;48.506;8.870;2022-08-11T00:50:08;2.70;;;2.50;;
11000;SDS011;5553;48.506;8.870;2022-08-11T00:52:58;2.87;;;2.50;;
11000;SDS011;5553;48.506;8.870;2022-08-11T00:55:41;2.47;;;2.27;;
11000;SDS011;5553;48.506;8.870;2022-08-11T01:01:54;3.43;;;2.20;;
11000;SDS011;5553;48.506;8.870;2022-08-11T01:04:38;2.50;;;2.30;;
11000;SDS011;5553;48.506;8.870;2022-08-11T01:07:29;2.07;;;1.90;;
11000;SDS011;5553;48.506;8.870;2022-08-11T01:10:22;3.43;;;2.50;;
11000;SDS011;5553;48.506;8.870;2022-08-11T01:13:18;2.50;;;2.30;;
11000;SDS011;5553;48.506;8.870;2022-08-11T01:16:19;2.80;;;2.60;;
11000;SDS011;5553;48.506;8.870;2022-08-11T01:19:20;2.90;;;2.43;;
11000;SDS011;5553;48.506;8.870;2022-08-11T01:22:20;2.83;;;2.50;;
11000;SDS011;5553;48.506;8.870;2022-08-11T01:28:26;2.60;;;2.40;;
11000;SDS011;5553;48.506;8.870;2022-08-11T01:31:21;3.23;;;2.60;;
11000;SDS011;5553;48.506;8.870;2022-08-11T01:37:31;2.57;;;2.37;;
11000;SDS011;5553;48.506;8.870;2022-08-11T01:40:29;2.40;;;2.30;;
11000;SDS011;5553;48.506;8.870;2022-08-11T01:43:38;2.70;;;2.40;;
11000;SDS011;5553;48.506;8.870;2022-08-11T01:46:42;2.67;;;2.20;;
11000;SDS011;5553;48.506;8.870;2022-08-11T01:49:18;2.63;;;2.40;;
11000;SDS011;5553;48.506;8.870;2022-08-11T01:51:59;2.47;;;2.17;;
11000;SDS011;5553;48.506;8.870;2022-08-11T01:54:40;3.80;;;2.23;;
11000;SDS011;5553;48.506;8.870;2022-08-11T01:57:18;2.60;;;2.40;;
11000;SDS011;5553;48.506;8.870;2022-08-11T01:59:58;3.97;;;2.60;;
11000;SDS011;5553;48.506;8.870;2022-08-11T02:02:40;3.10;;;2.80;;
11000;SDS011;5553;48.506;8.870;2022-08-11T02:05:29;3.27;;;2.50;;
11000;SDS011;5553;48.506;8.870;2022-08-11T02:08:10;2.53;;;2.37;;
11000;SDS011;5553;48.506;8.870;2022-08-11T02:10:53;3.40;;;2.40;;
11000;SDS011;5553;48.506;8.870;2022-08-11T02:16:58;2.70;;;2.50;;
11000;SDS011;5553;48.506;8.870;2022-08-11T02:19:41;2.73;;;2.53;;
11000;SDS011;5553;48.506;8.870;2022-08-11T02:22:35;2.97;;;2.70;;
11000;SDS011;5553;48.506;8.870;2022-08-11T02:25:23;4.37;;;2.77;;
11000;SDS011;5553;48.506;8.870;2022-08-11T02:28:01;2.40;;;2.20;;
11000;SDS011;5553;48.506;8.870;2022-08-11T02:30:36;2.40;;;2.30;;
11000;SDS011;5553;48.506;8.870;2022-08-11T02:33:12;6.30;;;2.67;;
11000;SDS011;5553;48.506;8.870;2022-08-11T02:35:49;4.70;;;2.60;;
11000;SDS011;5553;48.506;8.870;2022-08-11T02:38:25;3.30;;;2.97;;
11000;SDS011;5553;48.506;8.870;2022-08-11T02:40:59;3.57;;;2.70;;
11000;SDS011;5553;48.506;8.870;2022-08-11T02:44:05;2.87;;;2.50;;
11000;SDS011;5553;48.506;8.870;2022-08-11T02:46:46;2.57;;;2.37;;
11000;SDS011;5553;48.506;8.870;2022-08-11T02:49:32;2.93;;;2.63;;
11000;SDS011;5553;48.506;8.870;2022-08-11T02:52:19;2.77;;;2.57;;
11000;SDS011;5553;48.506;8.870;2022-08-11T02:55:02;6.20;;;2.90;;
11000;SDS011;5553;48.506;8.870;2022-08-11T02:57:40;3.97;;;2.77;;
11000;SDS011;5553;48.506;8.870;2022-08-11T03:00:16;3.50;;;2.87;;
11000;SDS011;5553;48.506;8.870;2022-08-11T03:02:50;3.57;;;3.03;;
11000;SDS011;5553;48.506;8.870;2022-08-11T03:05:32;3.10;;;2.43;;
11000;SDS011;5553;48.506;8.870;2022-08-11T03:11:21;4.97;;;3.30;;
11000;SDS011;5553;48.506;8.870;2022-08-11T03:14:24;3.67;;;3.37;;
11000;SDS011;5553;48.506;8.870;2022-08-11T03:17:22;3.20;;;2.90;;
11000;SDS011;5553;48.506;8.870;2022-08-11T03:22:56;4.03;;;3.63;;
11000;SDS011;5553;48.506;8.870;2022-08-11T03:25:31;3.37;;;2.83;;
11000;SDS011;5553;48.506;8.870;2022-08-11T03:28:13;2.53;;;2.33;;
11000;SDS011;5553;48.506;8.870;2022-08-11T03:30:53;3.20;;;3.00;;
11000;SDS011;5553;48.506;8.870;2022-08-11T03:33:31;3.70;;;3.33;;
11000;SDS011;5553;48.506;8.870;2022-08-11T03:36:19;2.67;;;2.43;;
11000;SDS011;5553;48.506;8.870;2022-08-11T03:39:08;4.27;;;3.87;;
11000;SDS011;5553;48.506;8.870;2022-08-11T03:41:48;3.60;;;3.13;;
11000;SDS011;5553;48.506;8.870;2022-08-11T03:44:31;4.57;;;3.23;;
11000;SDS011;5553;48.506;8.870;2022-08-11T03:47:24;3.67;;;2.50;;
11000;SDS011;5553;48.506;8.870;2022-08-11T03:50:09;3.00;;;2.70;;
11000;SDS011;5553;48.506;8.870;2022-08-11T03:52:51;5.77;;;2.80;;
11000;SDS011;5553;48.506;8.870;2022-08-11T03:55:31;10.30;;;3.27;;
11000;SDS011;5553;48.506;8.870;2022-08-11T03:58:31;3.13;;;2.83;;
11000;SDS011;5553;48.506;8.870;2022-08-11T04:01:27;5.70;;;3.60;;
11000;SDS011;5553;48.506;8.870;2022-08-11T04:04:28;6.10;;;3.10;;
11000;SDS011;5553;48.506;8.870;2022-08-11T04:10:44;3.57;;;3.27;;
11000;SDS011;5553;48.506;8.870;2022-08-11T04:17:17;5.30;;;3.20;;
11000;SDS011;5553;48.506;8.870;2022-08-11T04:20:22;5.67;;;3.43;;
11000;SDS011;5553;48.506;8.870;2022-08-11T04:26:04;3.10;;;2.90;;
11000;SDS011;5553;48.506;8.870;2022-08-11T04:28:59;7.67;;;4.47;;
11000;SDS011;5553;48.506;8.870;2022-08-11T04:31:34;4.80;;;3.70;;
11000;SDS011;5553;48.506;8.870;2022-08-11T04:34:11;4.77;;;3.40;;
11000;SDS011;5553;48.506;8.870;2022-08-11T04:37:18;3.63;;;3.23;;
11000;SDS011;5553;48.506;8.870;2022-08-11T04:46:14;4.83;;;3.73;;
11000;SDS011;5553;48.506;8.870;2022-08-11T04:55:53;4.10;;;3.27;;
11000;SDS011;5553;48.506;8.870;2022-08-11T05:02:41;3.90;;;3.03;;
11000;SDS011;5553;48.506;8.870;2022-08-11T05:11:41;4.47;;;3.40;;
11000;SDS011;5553;48.506;8.870;2022-08-11T05:14:28;3.60;;;3.30;;
11000;SDS011;5553;48.506;8.870;2022-08-11T05:17:12;6.27;;;3.40;;
11000;SDS011;5553;48.506;8.870;2022-08-11T05:19:57;6.97;;;3.60;;
11000;SDS011;5553;48.506;8.870;2022-08-11T05:22:41;5.87;;;3.10;;
11000;SDS011;5553;48.506;8.870;2022-08-11T05:25:28;14.90;;;3.90;;
11000;SDS011;5553;48.506;8.870;2022-08-11T05:28:11;12.70;;;4.23;;
11000;SDS011;5553;48.506;8.870;2022-08-11T05:30:55;46.30;;;6.60;;
11000;SDS011;5553;48.506;8.870;2022-08-11T05:33:41;49.30;;;7.80;;
11000;SDS011;5553;48.506;8.870;2022-08-11T05:36:29;29.73;;;5.43;;
11000;SDS011;5553;48.506;8.870;2022-08-11T05:39:10;76.00;;;7.83;;
11000;SDS011;5553;48.506;8.870;2022-08-11T05:41:55;56.87;;;7.33;;
11000;SDS011;5553;48.506;8.870;2022-08-11T05:44:38;19.20;;;5.43;;
11000;SDS011;5553;48.506;8.870;2022-08-11T05:47:20;16.83;;;5.00;;
11000;SDS011;5553;48.506;8.870;2022-08-11T05:50:05;25.10;;;4.70;;
11000;SDS011;5553;48.506;8.870;2022-08-11T05:52:51;13.17;;;3.87;;
11000;SDS011;5553;48.506;8.870;2022-08-11T05:55:35;15.13;;;4.50;;
11000;SDS011;5553;48.506;8.870;2022-08-11T05:58:19;6.77;;;3.40;;
11000;SDS011;5553;48.506;8.870;2022-08-11T06:00:48;4.33;;;3.10;;
11000;SDS011;5553;48.506;8.870;2022-08-11T06:03:19;10.27;;;3.70;;
11000;SDS011;5553;48.506;8.870;2022-08-11T06:05:53;4.37;;;3.30;;
11000;SDS011;5553;48.506;8.870;2022-08-11T06:08:29;4.80;;;3.40;;
11000;SDS011;5553;48.506;8.870;2022-08-11T06:11:01;6.00;;;3.43;;
11000;SDS011;5553;48.506;8.870;2022-08-11T06:13:31;3.43;;;3.10;;
11000;SDS011;5553;48.506;8.870;2022-08-11T06:16:01;4.10;;;3.60;;
11000;SDS011;5553;48.506;8.870;2022-08-11T06:18:30;3.43;;;3.13;;
11000;SDS011;5553;48.506;8.870;2022-08-11T06:20:59;4.83;;;3.53;;
11000;SDS011;5553;48.506;8.870;2022-08-11T06:23:32;3.63;;;3.10;;
11000;SDS011;5553;48.506;8.870;2022-08-11T06:26:04;5.60;;;3.50;;
11000;SDS011;5553;48.506;8.870;2022-08-11T06:28:36;4.20;;;3.10;;
11000;SDS011;5553;48.506;8.870;2022-08-11T06:31:10;8.10;;;3.70;;
11000;SDS011;5553;48.506;8.870;2022-08-11T06:33:44;3.90;;;3.40;;
11000;SDS011;5553;48.506;8.870;2022-08-11T06:36:22;4.87;;;3.87;;
11000;SDS011;5553;48.506;8.870;2022-08-11T06:39:06;8.00;;;4.00;;
11000;SDS011;5553;48.506;8.870;2022-08-11T06:41:44;6.90;;;3.53;;
11000;SDS011;5553;48.506;8.870;2022-08-11T06:44:18;3.60;;;3.30;;
11000;SDS011;5553;48.506;8.870;2022-08-11T06:47:03;4.23;;;3.33;;
11000;SDS011;5553;48.506;8.870;2022-08-11T06:49:45;4.90;;;3.77;;
11000;SDS011;5553;48.506;8.870;2022-08-11T06:52:36;4.00;;;3.37;;
11000;SDS011;5553;48.506;8.870;2022-08-11T06:55:10;5.33;;;3.80;;
11000;SDS011;5553;48.506;8.870;2022-08-11T06:57:59;7.40;;;3.60;;
11000;SDS011;5553;48.506;8.870;2022-08-11T07:00:41;5.60;;;4.07;;
11000;SDS011;5553;48.506;8.870;2022-08-11T07:03:14;3.70;;;3.40;;
11000;SDS011;5553;48.506;8.870;2022-08-11T07:05:46;4.30;;;3.63;;
11000;SDS011;5553;48.506;8.870;2022-08-11T07:08:28;4.80;;;4.40;;
11000;SDS011;5553;48.506;8.870;2022-08-11T07:14:45;3.37;;;3.10;;
11000;SDS011;5553;48.506;8.870;2022-08-11T07:17:29;6.50;;;3.90;;
11000;SDS011;5553;48.506;8.870;2022-08-11T07:20:02;4.27;;;3.47;;
11000;SDS011;5553;48.506;8.870;2022-08-11T07:22:47;4.50;;;3.70;;
11000;SDS011;5553;48.506;8.870;2022-08-11T07:25:32;4.30;;;3.90;;
11000;SDS011;5553;48.506;8.870;2022-08-11T07:28:20;4.10;;;3.80;;
11000;SDS011;5553;48.506;8.870;2022-08-11T07:31:15;3.83;;;3.53;;
11000;SDS011;5553;48.506;8.870;2022-08-11T07:33:48;7.03;;;3.90;;
11000;SDS011;5553;48.506;8.870;2022-08-11T07:36:19;7.83;;;3.67;;
11000;SDS011;5553;48.506;8.870;2022-08-11T07:38:52;4.23;;;3.93;;
11000;SDS011;5553;48.506;8.870;2022-08-11T07:41:23;5.43;;;4.90;;
11000;SDS011;5553;48.506;8.870;2022-08-11T07:43:56;8.40;;;4.73;;
11000;SDS011;5553;48.506;8.870;2022-08-11T07:46:37;6.47;;;3.80;;
11000;SDS011;5553;48.506;8.870;2022-08-11T07:49:20;3.63;;;3.20;;
11000;SDS011;5553;48.506;8.870;2022-08-11T07:52:01;5.13;;;3.90;;
11000;SDS011;5553;48.506;8.870;2022-08-11T07:54:42;4.17;;;3.77;;
11000;SDS011;5553;48.506;8.870;2022-08-11T07:57:11;4.63;;;4.23;;
11000;SDS011;5553;48.506;8.870;2022-08-11T07:59:52;6.50;;;4.13;;
11000;SDS011;5553;48.506;8.870;2022-08-11T08:02:38;4.80;;;4.03;;
11000;SDS011;5553;48.506;8.870;2022-08-11T08:05:20;4.40;;;3.40;;
11000;SDS011;5553;48.506;8.870;2022-08-11T08:08:01;8.20;;;3.43;;
11000;SDS011;5553;48.506;8.870;2022-08-11T08:10:42;4.43;;;3.87;;
11000;SDS011;5553;48.506;8.870;2022-08-11T08:13:23;4.93;;;3.47;;
11000;SDS011;5553;48.506;8.870;2022-08-11T08:16:04;4.13;;;3.80;;
11000;SDS011;5553;48.506;8.870;2022-08-11T08:18:48;15.07;;;4.00;;
11000;SDS011;5553;48.506;8.870;2022-08-11T08:21:17;3.67;;;3.37;;
11000;SDS011;5553;48.506;8.870;2022-08-11T08:23:45;5.60;;;4.40;;
11000;SDS011;5553;48.506;8.870;2022-08-11T08:26:14;5.80;;;4.10;;
11000;SDS011;5553;48.506;8.870;2022-08-11T08:28:56;4.17;;;3.80;;
11000;SDS011;5553;48.506;8.870;2022-08-11T08:31:40;3.73;;;3.43;;
11000;SDS011;5553;48.506;8.870;2022-08-11T08:34:12;12.33;;;3.77;;
11000;SDS011;5553;48.506;8.870;2022-08-11T08:36:41;3.77;;;3.30;;
11000;SDS011;5553;48.506;8.870;2022-08-11T08:39:11;3.70;;;3.03;;
11000;SDS011;5553;48.506;8.870;2022-08-11T08:41:41;4.03;;;3.63;;
11000;SDS011;5553;48.506;8.870;2022-08-11T08:44:11;2.63;;;2.43;;
11000;SDS011;5553;48.506;8.870;2022-08-11T08:46:41;3.73;;;3.00;;
11000;SDS011;5553;48.506;8.870;2022-08-11T08:49:15;5.70;;;3.37;;
11000;SDS011;5553;48.506;8.870;2022-08-11T08:51:47;3.57;;;3.27;;
11000;SDS011;5553;48.506;8.870;2022-08-11T08:54:20;3.80;;;3.50;;
11000;SDS011;5553;48.506;8.870;2022-08-11T08:56:50;5.20;;;3.13;;
11000;SDS011;5553;48.506;8.870;2022-08-11T08:59:23;3.93;;;3.50;;
11000;SDS011;5553;48.506;8.870;2022-08-11T09:01:54;3.77;;;3.47;;
11000;SDS011;5553;48.506;8.870;2022-08-11T09:04:28;5.03;;;3.60;;
11000;SDS011;5553;48.506;8.870;2022-08-11T09:06:59;8.50;;;3.80;;
11000;SDS011;5553;48.506;8.870;2022-08-11T09:09:33;4.73;;;3.87;;
11000;SDS011;5553;48.506;8.870;2022-08-11T09:12:02;5.60;;;3.43;;
11000;SDS011;5553;48.506;8.870;2022-08-11T09:14:33;3.40;;;3.20;;
11000;SDS011;5553;48.506;8.870;2022-08-11T09:17:16;6.23;;;5.57;;
11000;SDS011;5553;48.506;8.870;2022-08-11T09:19:50;4.90;;;4.10;;
11000;SDS011;5553;48.506;8.870;2022-08-11T09:32:21;4.03;;;3.60;;
11000;SDS011;5553;48.506;8.870;2022-08-11T09:39:53;4.23;;;3.83;;
11000;SDS011;5553;48.506;8.870;2022-08-11T09:42:35;5.93;;;3.90;;
11000;SDS011;5553;48.506;8.870;2022-08-11T09:45:17;3.77;;;3.53;;
11000;SDS011;5553;48.506;8.870;2022-08-11T09:47:46;4.80;;;3.40;;
11000;SDS011;5553;48.506;8.870;2022-08-11T09:50:15;4.00;;;3.60;;
11000;SDS011;5553;48.506;8.870;2022-08-11T09:52:44;3.83;;;3.53;;
11000;SDS011;5553;48.506;8.870;2022-08-11T09:55:16;3.50;;;3.30;;
11000;SDS011;5553;48.506;8.870;2022-08-11T09:57:45;4.33;;;3.70;;
11000;SDS011;5553;48.506;8.870;2022-08-11T10:00:27;3.33;;;3.13;;
11000;SDS011;5553;48.506;8.870;2022-08-11T10:02:56;4.17;;;3.77;;
11000;SDS011;5553;48.506;8.870;2022-08-11T10:05:26;6.87;;;4.07;;
11000;SDS011;5553;48.506;8.870;2022-08-11T10:08:11;4.00;;;3.67;;
11000;SDS011;5553;48.506;8.870;2022-08-11T10:10:43;5.13;;;3.83;;
11000;SDS011;5553;48.506;8.870;2022-08-11T10:13:13;5.27;;;3.60;;
11000;SDS011;5553;48.506;8.870;2022-08-11T10:15:50;3.20;;;3.00;;
11000;SDS011;5553;48.506;8.870;2022-08-11T10:18:23;3.50;;;3.20;;
11000;SDS011;5553;48.506;8.870;2022-08-11T10:21:14;3.50;;;3.20;;
11000;SDS011;5553;48.506;8.870;2022-08-11T10:23:52;6.10;;;3.50;;
11000;SDS011;5553;48.506;8.870;2022-08-11T10:26:36;3.47;;;3.17;;
11000;SDS011;5553;48.506;8.870;2022-08-11T10:29:23;3.97;;;3.67;;
11000;SDS011;5553;48.506;8.870;2022-08-11T10:32:06;4.80;;;3.70;;
11000;SDS011;5553;48.506;8.870;2022-08-11T10:34:48;3.50;;;3.20;;
11000;SDS011;5553;48.506;8.870;2022-08-11T10:37:19;2.80;;;2.60;;
11000;SDS011;5553;48.506;8.870;2022-08-11T10:39:49;4.80;;;2.93;;
11000;SDS011;5553;48.506;8.870;2022-08-11T10:42:22;4.07;;;3.10;;
11000;SDS011;5553;48.506;8.870;2022-08-11T10:45:04;4.33;;;2.90;;
11000;SDS011;5553;48.506;8.870;2022-08-11T10:47:56;3.30;;;3.00;;
11000;SDS011;5553;48.506;8.870;2022-08-11T10:50:22;5.23;;;3.17;;
11000;SDS011;5553;48.506;8.870;2022-08-11T10:53:04;3.60;;;3.07;;
11000;SDS011;5553;48.506;8.870;2022-08-11T10:55:47;3.40;;;3.00;;
11000;SDS011;5553;48.506;8.870;2022-08-11T10:58:31;3.30;;;2.90;;
11000;SDS011;5553;48.506;8.870;2022-08-11T11:01:14;4.30;;;2.83;;
11000;SDS011;5553;48.506;8.870;2022-08-11T11:03:46;3.20;;;2.70;;
11000;SDS011;5553;48.506;8.870;2022-08-11T11:06:20;3.60;;;2.90;;
11000;SDS011;5553;48.506;8.870;2022-08-11T11:08:54;3.27;;;2.97;;
11000;SDS011;5553;48.506;8.870;2022-08-11T11:11:26;3.47;;;2.87;;
11000;SDS011;5553;48.506;8.870;2022-08-11T11:14:13;3.30;;;3.10;;
11000;SDS011;5553;48.506;8.870;2022-08-11T11:16:56;4.10;;;2.70;;
11000;SDS011;5553;48.506;8.870;2022-08-11T11:19:37;2.90;;;2.70;;
11000;SDS011;5553;48.506;8.870;2022-08-11T11:22:07;3.03;;;2.83;;
11000;SDS011;5553;48.506;8.870;2022-08-11T11:25:12;3.10;;;2.90;;
11000;SDS011;5553;48.506;8.870;2022-08-11T11:27:53;2.90;;;2.70;;
11000;SDS011;5553;48.506;8.870;2022-08-11T11:30:34;3.60;;;2.90;;
11000;SDS011;5553;48.506;8.870;2022-08-11T11:33:10;3.40;;;3.00;;
11000;SDS011;5553;48.506;8.870;2022-08-11T11:35:48;2.97;;;2.70;;
11000;SDS011;5553;48.506;8.870;2022-08-11T11:38:24;4.97;;;3.07;;
11000;SDS011;5553;48.506;8.870;2022-08-11T11:40:55;4.57;;;2.50;;
11000;SDS011;5553;48.506;8.870;2022-08-11T11:43:36;3.43;;;3.23;;
11000;SDS011;5553;48.506;8.870;2022-08-11T11:46:10;2.37;;;2.27;;
11000;SDS011;5553;48.506;8.870;2022-08-11T11:48:38;3.13;;;2.93;;
11000;SDS011;5553;48.506;8.870;2022-08-11T11:51:08;2.83;;;2.63;;
11000;SDS011;5553;48.506;8.870;2022-08-11T11:53:38;2.83;;;2.63;;
11000;SDS011;5553;48.506;8.870;2022-08-11T11:56:09;2.93;;;2.73;;
11000;SDS011;5553;48.506;8.870;2022-08-11T11:58:38;3.00;;;2.80;;
11000;SDS011;5553;48.506;8.870;2022-08-11T12:01:22;3.13;;;2.83;;
11000;SDS011;5553;48.506;8.870;2022-08-11T12:03:52;3.33;;;3.13;;
11000;SDS011;5553;48.506;8.870;2022-08-11T12:06:22;3.43;;;3.13;;
11000;SDS011;5553;48.506;8.870;2022-08-11T12:08:53;3.83;;;3.03;;
11000;SDS011;5553;48.506;8.870;2022-08-11T12:11:25;2.50;;;2.30;;
11000;SDS011;5553;48.506;8.870;2022-08-11T12:14:07;4.73;;;3.27;;
11000;SDS011;5553;48.506;8.870;2022-08-11T12:16:40;3.33;;;3.13;;
11000;SDS011;5553;48.506;8.870;2022-08-11T12:19:11;3.87;;;3.20;;
11000;SDS011;5553;48.506;8.870;2022-08-11T12:21:41;2.97;;;2.77;;
11000;SDS011;5553;48.506;8.870;2022-08-11T12:24:23;3.20;;;3.00;;
11000;SDS011;5553;48.506;8.870;2022-08-11T12:27:04;3.00;;;2.80;;
11000;SDS011;5553;48.506;8.870;2022-08-11T12:29:46;3.60;;;3.30;;
11000;SDS011;5553;48.506;8.870;2022-08-11T12:32:18;2.70;;;2.50;;
11000;SDS011;5553;48.506;8.870;2022-08-11T12:34:48;3.10;;;2.67;;
11000;SDS011;5553;48.506;8.870;2022-08-11T12:37:19;3.33;;;3.13;;
11000;SDS011;5553;48.506;8.870;2022-08-11T12:39:56;2.90;;;2.63;;
11000;SDS011;5553;48.506;8.870;2022-08-11T12:42:39;3.50;;;3.20;;
11000;SDS011;5553;48.506;8.870;2022-08-11T12:45:22;2.67;;;2.47;;
11000;SDS011;5553;48.506;8.870;2022-08-11T12:48:08;3.10;;;2.90;;
11000;SDS011;5553;48.506;8.870;2022-08-11T12:51:04;3.27;;;3.03;;
11000;SDS011;5553;48.506;8.870;2022-08-11T15:25:05;3.63;;;2.87;;
11000;SDS011;5553;48.506;8.870;2022-08-11T15:27:34;3.77;;;3.47;;
11000;SDS011;5553;48.506;8.870;2022-08-11T15:30:15;3.07;;;2.87;;
11000;SDS011;5553;48.506;8.870;2022-08-11T15:32:56;6.87;;;6.13;;
11000;SDS011;5553;48.506;8.870;2022-08-11T15:35:38;4.70;;;3.17;;
11000;SDS011;5553;48.506;8.870;2022-08-11T15:38:19;5.40;;;3.03;;
11000;SDS011;5553;48.506;8.870;2022-08-11T15:40:51;3.90;;;2.90;;
11000;SDS011;5553;48.506;8.870;2022-08-11T15:43:37;3.00;;;2.73;;
11000;SDS011;5553;48.506;8.870;2022-08-11T15:46:24;4.37;;;3.20;;
11000;SDS011;5553;48.506;8.870;2022-08-11T15:48:58;5.07;;;3.57;;
11000;SDS011;5553;48.506;8.870;2022-08-11T15:51:34;5.80;;;3.17;;
11000;SDS011;5553;48.506;8.870;2022-08-11T15:54:04;3.83;;;3.03;;
11000;SDS011;5553;48.506;8.870;2022-08-11T15:56:40;4.27;;;2.83;;
11000;SDS011;5553;48.506;8.870;2022-08-11T15:59:12;3.23;;;2.83;;
11000;SDS011;5553;48.506;8.870;2022-08-11T16:01:54;3.20;;;2.90;;
11000;SDS011;5553;48.506;8.870;2022-08-11T16:04:51;3.13;;;2.93;;
11000;SDS011;5553;48.506;8.870;2022-08-11T16:07:22;2.83;;;2.63;;
11000;SDS011;5553;48.506;8.870;2022-08-11T16:09:55;4.70;;;2.97;;
11000;SDS011;5553;48.506;8.870;2022-08-11T16:12:32;3.23;;;3.03;;
11000;SDS011;5553;48.506;8.870;2022-08-11T16:15:04;2.97;;;2.70;;
11000;SDS011;5553;48.506;8.870;2022-08-11T16:17:49;3.60;;;3.30;;
11000;SDS011;5553;48.506;8.870;2022-08-11T16:20:19;3.10;;;2.90;;
11000;SDS011;5553;48.506;8.870;2022-08-11T16:22:50;6.40;;;3.10;;
11000;SDS011;5553;48.506;8.870;2022-08-11T16:25:21;2.77;;;2.50;;
11000;SDS011;5553;48.506;8.870;2022-08-11T16:27:55;4.90;;;3.50;;
11000;SDS011;5553;48.506;8.870;2022-08-11T16:30:27;4.10;;;3.20;;
11000;SDS011;5553;48.506;8.870;2022-08-11T16:32:58;3.30;;;3.10;;
11000;SDS011;5553;48.506;8.870;2022-08-11T16:35:29;4.07;;;3.60;;
11000;SDS011;5553;48.506;8.870;2022-08-11T16:38:12;3.60;;;3.30;;
11000;SDS011;5553;48.506;8.870;2022-08-11T16:40:55;3.10;;;2.90;;
11000;SDS011;5553;48.506;8.870;2022-08-11T16:43:28;3.33;;;3.10;;
11000;SDS011;5553;48.506;8.870;2022-08-11T16:46:11;3.60;;;3.30;;
11000;SDS011;5553;48.506;8.870;2022-08-11T16:48:54;3.93;;;3.30;;
11000;SDS011;5553;48.506;8.870;2022-08-11T16:51:24;6.27;;;2.93;;
11000;SDS011;5553;48.506;8.870;2022-08-11T16:53:52;4.07;;;3.03;;
11000;SDS011;5553;48.506;8.870;2022-08-11T16:56:22;4.70;;;2.97;;
11000;SDS011;5553;48.506;8.870;2022-08-11T16:58:59;2.83;;;2.63;;
11000;SDS011;5553;48.506;8.870;2022-08-11T17:01:39;3.50;;;3.30;;
11000;SDS011;5553;48.506;8.870;2022-08-11T17:04:16;6.23;;;3.40;;
11000;SDS011;5553;48.506;8.870;2022-08-11T17:07:00;3.80;;;2.87;;
11000;SDS011;5553;48.506;8.870;2022-08-11T17:09:42;3.07;;;2.87;;
11000;SDS011;5553;48.506;8.870;2022-08-11T17:12:27;3.10;;;2.83;;
11000;SDS011;5553;48.506;8.870;2022-08-11T17:15:14;3.50;;;2.70;;
11000;SDS011;5553;48.506;8.870;2022-08-11T17:17:56;3.00;;;2.80;;
11000;SDS011;5553;48.506;8.870;2022-08-11T17:20:26;3.30;;;2.23;;
11000;SDS011;5553;48.506;8.870;2022-08-11T17:22:55;2.73;;;2.30;;
11000;SDS011;5553;48.506;8.870;2022-08-11T17:25:37;3.17;;;2.77;;
11000;SDS011;5553;48.506;8.870;2022-08-11T17:28:06;2.63;;;2.43;;
11000;SDS011;5553;48.506;8.870;2022-08-11T17:30:38;3.17;;;2.87;;
11000;SDS011;5553;48.506;8.870;2022-08-11T17:33:22;3.30;;;3.00;;
11000;SDS011;5553;48.506;8.870;2022-08-11T17:36:04;3.30;;;3.00;;
11000;SDS011;5553;48.506;8.870;2022-08-11T17:38:34;3.13;;;2.80;;
11000;SDS011;5553;48.506;8.870;2022-08-11T17:41:03;3.63;;;3.33;;
11000;SDS011;5553;48.506;8.870;2022-08-11T17:43:45;3.20;;;3.00;;
11000;SDS011;5553;48.506;8.870;2022-08-11T17:46:30;3.83;;;2.70;;
11000;SDS011;5553;48.506;8.870;2022-08-11T17:49:13;7.50;;;3.10;;
11000;SDS011;5553;48.506;8.870;2022-08-11T17:51:47;10.30;;;3.00;;
11000;SDS011;5553;48.506;8.870;2022-08-11T17:54:29;3.63;;;3.33;;
11000;SDS011;5553;48.506;8.870;2022-08-11T17:57:11;3.00;;;2.73;;
11000;SDS011;5553;48.506;8.870;2022-08-11T17:59:53;5.63;;;2.97;;
11000;SDS011;5553;48.506;8.870;2022-08-11T18:02:27;3.77;;;3.47;;
11000;SDS011;5553;48.506;8.870;2022-08-11T18:05:16;3.63;;;3.33;;
11000;SDS011;5553;48.506;8.870;2022-08-11T18:07:47;3.10;;;2.80;;
11000;SDS011;5553;48.506;8.870;2022-08-11T18:10:31;4.57;;;3.53;;
11000;SDS011;5553;48.506;8.870;2022-08-11T18:13:14;3.87;;;2.90;;
11000;SDS011;5553;48.506;8.870;2022-08-11T18:15:56;4.07;;;2.70;;
11000;SDS011;5553;48.506;8.870;2022-08-11T18:18:40;2.90;;;2.60;;
11000;SDS011;5553;48.506;8.870;2022-08-11T18:21:20;3.27;;;2.97;;
11000;SDS011;5553;48.506;8.870;2022-08-11T18:24:04;4.40;;;2.77;;
11000;SDS011;5553;48.506;8.870;2022-08-11T18:26:49;3.77;;;3.47;;
11000;SDS011;5553;48.506;8.870;2022-08-11T18:29:32;4.60;;;3.67;;
11000;SDS011;5553;48.506;8.870;2022-08-11T18:32:18;3.50;;;3.10;;
11000;SDS011;5553;48.506;8.870;2022-08-11T18:35:05;4.40;;;2.83;;
11000;SDS011;5553;48.506;8.870;2022-08-11T18:37:49;3.00;;;2.63;;
11000;SDS011;5553;48.506;8.870;2022-08-11T18:40:31;3.23;;;2.93;;
11000;SDS011;5553;48.506;8.870;2022-08-11T18:43:15;3.00;;;2.73;;
11000;SDS011;5553;48.506;8.870;2022-08-11T18:45:59;7.10;;;3.53;;
11000;SDS011;5553;48.506;8.870;2022-08-11T18:48:46;3.93;;;3.10;;
11000;SDS011;5553;48.506;8.870;2022-08-11T18:51:33;3.83;;;3.10;;
11000;SDS011;5553;48.506;8.870;2022-08-11T18:54:15;4.60;;;3.40;;
11000;SDS011;5553;48.506;8.870;2022-08-11T18:57:00;6.70;;;3.80;;
11000;SDS011;5553;48.506;8.870;2022-08-11T18:59:42;8.33;;;4.70;;
11000;SDS011;5553;48.506;8.870;2022-08-11T19:02:26;3.97;;;3.50;;
11000;SDS011;5553;48.506;8.870;2022-08-11T19:05:07;8.43;;;4.27;;
11000;SDS011;5553;48.506;8.870;2022-08-11T19:07:53;4.03;;;3.63;;
11000;SDS011;5553;48.506;8.870;2022-08-11T19:10:36;5.97;;;3.90;;
11000;SDS011;5553;48.506;8.870;2022-08-11T19:13:17;6.77;;;3.73;;
11000;SDS011;5553;48.506;8.870;2022-08-11T19:16:00;6.20;;;3.73;;
11000;SDS011;5553;48.506;8.870;2022-08-11T19:18:43;6.17;;;4.00;;
11000;SDS011;5553;48.506;8.870;2022-08-11T19:21:26;7.80;;;4.47;;
11000;SDS011;5553;48.506;8.870;2022-08-11T19:24:11;11.53;;;5.70;;
11000;SDS011;5553;48.506;8.870;2022-08-11T19:26:53;9.40;;;4.10;;
11000;SDS011;5553;48.506;8.870;2022-08-11T19:29:34;3.93;;;3.47;;
11000;SDS011;5553;48.506;8.870;2022-08-11T19:32:17;12.23;;;4.57;;
11000;SDS011;5553;48.506;8.870;2022-08-11T19:34:59;8.13;;;5.10;;
11000;SDS011;5553;48.506;8.870;2022-08-11T19:37:40;7.33;;;4.53;;
11000;SDS011;5553;48.506;8.870;2022-08-11T19:40:26;4.77;;;3.73;;
11000;SDS011;5553;48.506;8.870;2022-08-11T19:43:08;5.00;;;3.40;;
11000;SDS011;5553;48.506;8.870;2022-08-11T19:45:51;4.17;;;3.20;;
11000;SDS011;5553;48.506;8.870;2022-08-11T19:48:33;4.93;;;3.07;;
11000;SDS011;5553;48.506;8.870;2022-08-11T19:51:15;2.80;;;2.60;;
11000;SDS011;5553;48.506;8.870;2022-08-11T19:53:56;3.40;;;3.10;;
11000;SDS011;5553;48.506;8.870;2022-08-11T19:56:40;4.13;;;3.40;;
11000;SDS011;5553;48.506;8.870;2022-08-11T19:59:23;5.50;;;3.43;;